Time;durP1;ratioP1;P1;durP2;ratioP2;P2;SDS_P1;SDS_P2;PMS_P1;PMS_P2;Temp;Humidity;BMP_temperature;BMP_pressure;BME280_temperature;BME280_humidity;BME280_pressure;Samples;Min_cycle;Max_cycle;Signal;HPM_P1;HPM_P2
2021/05/26 00:01:04;;;;;;;1494.17;999.90;;;;;;;9.28;100.00;100503.63;5068961;28;20434;-75
2021/05/26 00:03:30;;;;;;;1609.70;999.90;;;;;;;9.30;100.00;100504.34;5068917;28;20490;-75
2021/05/26 00:05:56;;;;;;;1304.47;999.90;;;;;;;9.31;100.00;100506.97;5051368;28;20411;-75
2021/05/26 00:08:26;;;;;;;1999.90;999.90;;;;;;;9.31;100.00;100506.97;5069060;28;20486;-75
2021/05/26 00:10:52;;;;;;;1999.90;999.90;;;;;;;9.30;100.00;100505.25;5068957;28;20419;-74
2021/05/26 00:13:19;;;;;;;1569.07;999.90;;;;;;;9.32;100.00;100505.13;5051375;28;20427;-75
2021/05/26 00:15:46;;;;;;;1999.90;999.90;;;;;;;9.31;100.00;100506.09;5068811;28;20431;-73
2021/05/26 00:18:12;;;;;;;1538.63;999.90;;;;;;;9.32;100.00;100513.25;5068870;28;20416;-75
2021/05/26 00:20:38;;;;;;;1999.90;999.90;;;;;;;9.31;100.00;100506.97;5068746;28;20419;-75
2021/05/26 00:23:05;;;;;;;1830.95;999.90;;;;;;;9.31;100.00;100512.38;5068431;28;20427;-75
2021/05/26 00:25:31;;;;;;;1711.88;999.90;;;;;;;9.30;100.00;100504.34;5051297;28;20423;-74
2021/05/26 00:27:58;;;;;;;1747.87;999.90;;;;;;;9.31;100.00;100504.25;5068973;28;20426;-75
2021/05/26 00:30:26;;;;;;;1999.90;999.90;;;;;;;9.29;100.00;100498.09;5069023;28;20856;-74
2021/05/26 00:32:54;;;;;;;1464.65;999.90;;;;;;;9.28;100.00;100493.66;5068959;28;20464;-75
2021/05/26 00:35:20;;;;;;;1688.85;999.90;;;;;;;9.25;100.00;100501.19;5068919;28;20424;-75
2021/05/26 00:37:45;;;;;;;1617.38;999.90;;;;;;;9.24;100.00;100496.75;5068609;28;20906;-75
2021/05/26 00:40:12;;;;;;;1938.07;999.90;;;;;;;9.21;100.00;100497.84;5068624;28;20466;-74
2021/05/26 00:42:39;;;;;;;1999.90;999.90;;;;;;;9.17;100.00;100502.63;5068868;28;20818;-75
2021/05/26 00:45:06;;;;;;;1851.80;999.90;;;;;;;9.14;100.00;100493.88;5037374;28;20928;-74
2021/05/26 00:47:40;;;;;;;1999.90;999.90;;;;;;;9.13;100.00;100490.31;5048854;28;20417;-75
2021/05/26 00:50:09;;;;;;;1999.90;999.90;;;;;;;9.12;100.00;100491.28;5048908;28;20524;-74
2021/05/26 00:52:36;;;;;;;1999.90;999.90;;;;;;;9.10;100.00;100485.16;5031365;28;20473;-76
2021/05/26 00:55:04;;;;;;;1999.90;999.90;;;;;;;9.09;100.00;100491.53;5048479;28;20952;-74
2021/05/26 00:57:33;;;;;;;1971.15;999.90;;;;;;;9.08;100.00;100495.22;5048971;28;20409;-75
2021/05/26 00:59:59;;;;;;;1290.47;999.90;;;;;;;9.06;100.00;100491.78;5048867;28;21020;-75
2021/05/26 01:02:25;;;;;;;1299.70;999.90;;;;;;;9.05;100.00;100490.91;5030913;28;20421;-74
2021/05/26 01:04:51;;;;;;;1305.10;999.90;;;;;;;9.05;100.00;100490.06;5048574;28;20564;-74
2021/05/26 01:07:18;;;;;;;1260.68;999.90;;;;;;;9.04;100.00;100494.59;5048584;28;20486;-74
2021/05/26 01:09:44;;;;;;;1249.43;999.90;;;;;;;9.02;100.00;100495.72;5048420;28;20425;-75
2021/05/26 01:12:11;;;;;;;1340.25;999.90;;;;;;;9.01;100.00;100488.59;5030589;28;20416;-74
2021/05/26 01:14:37;;;;;;;1446.85;999.90;;;;;;;8.96;100.00;100485.38;5048159;28;20425;-75
2021/05/26 01:17:03;;;;;;;1607.15;999.90;;;;;;;8.94;100.00;100480.06;5048618;28;20547;-75
2021/05/26 01:19:29;;;;;;;1315.72;999.90;;;;;;;8.92;100.00;100482.03;5030407;28;20420;-75
2021/05/26 01:21:56;;;;;;;1280.97;999.90;;;;;;;8.91;100.00;100476.75;5048507;28;20413;-75
2021/05/26 01:24:23;;;;;;;1230.27;999.90;;;;;;;8.91;100.00;100474.03;5030623;28;20422;-74
2021/05/26 01:26:48;;;;;;;1370.20;999.90;;;;;;;8.92;100.00;100475.75;5048225;28;20426;-74
2021/05/26 01:29:15;;;;;;;1999.90;999.90;;;;;;;8.92;100.00;100473.06;5048317;28;20436;-74
2021/05/26 01:31:42;;;;;;;1229.88;999.90;;;;;;;8.93;100.00;100477.50;5048194;28;20430;-74
2021/05/26 01:34:09;;;;;;;1454.47;999.90;;;;;;;8.91;100.00;100474.88;5032006;28;20436;-75
2021/05/26 01:36:41;;;;;;;1999.90;999.90;;;;;;;8.92;100.00;100484.75;5033946;28;20428;-75
2021/05/26 01:39:08;;;;;;;1318.93;999.90;;;;;;;8.92;100.00;100484.75;5033897;28;20451;-74
2021/05/26 01:41:34;;;;;;;1871.63;999.90;;;;;;;8.94;100.00;100488.19;5052045;28;20474;-74
2021/05/26 01:44:02;;;;;;;1999.90;999.90;;;;;;;8.96;100.00;100479.94;5033734;28;20421;-74
2021/05/26 01:46:28;;;;;;;1474.75;999.90;;;;;;;8.96;100.00;100483.50;5051983;28;20409;-74
2021/05/26 01:48:54;;;;;;;1469.67;999.90;;;;;;;8.95;100.00;100475.50;5051393;28;20524;-75
2021/05/26 01:51:21;;;;;;;1975.95;999.90;;;;;;;8.94;100.00;100469.25;5051653;28;20417;-74
2021/05/26 01:53:47;;;;;;;1432.47;999.90;;;;;;;8.93;100.00;100475.63;5051371;28;20420;-75
2021/05/26 01:56:16;;;;;;;1221.68;999.90;;;;;;;8.94;100.00;100466.53;5051561;28;20512;-75
2021/05/26 01:58:50;;;;;;;1196.68;999.90;;;;;;;8.94;100.00;100465.66;5033682;28;20421;-75
2021/05/26 02:01:17;;;;;;;1672.93;999.90;;;;;;;8.94;100.00;100466.53;5033592;28;20436;-74
2021/05/26 02:03:45;;;;;;;1999.90;999.90;;;;;;;8.95;100.00;100472.81;5051305;28;20900;-75
2021/05/26 02:06:11;;;;;;;1206.85;999.90;;;;;;;8.97;100.00;100465.44;5033586;28;20849;-74
2021/05/26 02:08:38;;;;;;;1999.90;999.90;;;;;;;8.99;100.00;100464.34;5050792;28;20551;-75
2021/05/26 02:13:49;;;;;;;1557.80;999.90;;;;;;;8.99;100.00;100474.28;5050806;28;20852;-75
2021/05/26 02:16:15;;;;;;;1529.45;999.90;;;;;;;8.97;100.00;100469.00;5051355;28;21006;-75
2021/05/26 02:18:42;;;;;;;1428.38;999.90;;;;;;;8.95;100.00;100468.28;5033141;28;20449;-74
2021/05/26 02:21:08;;;;;;;1251.18;999.90;;;;;;;8.94;100.00;100462.94;5033416;28;20487;-75
2021/05/26 02:23:34;;;;;;;1322.20;999.90;;;;;;;8.94;100.00;100465.66;5051042;28;20544;-74
2021/05/26 02:26:00;;;;;;;1241.47;999.90;;;;;;;8.93;100.00;100461.25;5033112;28;20417;-75
2021/05/26 02:28:26;;;;;;;1651.38;999.90;;;;;;;8.94;100.00;100461.13;5032937;28;20970;-75
2021/05/26 02:30:53;;;;;;;1205.40;999.90;;;;;;;8.97;100.00;100460.03;5050708;28;20417;-75
2021/05/26 02:33:21;;;;;;;1310.40;999.90;;;;;;;8.96;100.00;100461.84;5050918;28;20441;-75
2021/05/26 02:35:48;;;;;;;1427.13;999.90;;;;;;;9.00;100.00;100459.78;5033086;28;20433;-75
2021/05/26 02:38:14;;;;;;;1187.57;999.90;;;;;;;9.02;100.00;100465.94;5050634;28;20425;-75
2021/05/26 02:40:41;;;;;;;1999.90;999.90;;;;;;;9.01;100.00;100461.50;5033170;28;20409;-74
2021/05/26 02:43:18;;;;;;;1999.90;999.90;;;;;;;9.00;100.00;100460.63;5032812;28;20430;-74
2021/05/26 02:45:44;;;;;;;1999.90;999.90;;;;;;;9.00;100.00;100467.91;5049851;28;20837;-75
2021/05/26 02:48:12;;;;;;;1550.82;999.90;;;;;;;8.99;100.00;100464.34;5032910;28;20431;-74
2021/05/26 02:50:40;;;;;;;1343.15;999.90;;;;;;;9.03;100.00;100464.94;5053050;28;20424;-75
2021/05/26 02:53:07;;;;;;;1384.70;999.90;;;;;;;9.00;100.00;100460.63;5032798;28;20523;-75
2021/05/26 02:55:34;;;;;;;1999.90;999.90;;;;;;;9.00;100.00;100467.91;5050362;28;20436;-74
2021/05/26 02:58:19;;;;;;;1932.57;999.90;;;;;;;9.01;100.00;100467.78;5050460;28;20414;-75
2021/05/26 03:01:14;;;;;;;1313.07;999.90;;;;;;;9.03;100.00;100467.66;4995615;28;20581;-75
2021/05/26 03:03:50;;;;;;;1692.63;999.90;;;;;;;9.03;100.00;100465.81;5032251;28;20970;-75
2021/05/26 03:06:24;;;;;;;1813.43;999.90;;;;;;;9.04;100.00;100466.66;5031931;28;20428;-74
2021/05/26 03:08:51;;;;;;;1918.35;999.90;;;;;;;9.04;100.00;100466.66;5050165;28;20425;-75
2021/05/26 03:11:21;;;;;;;1175.35;999.90;;;;;;;9.07;100.00;100471.84;5032418;28;20421;-75
2021/05/26 03:13:56;;;;;;;1345.07;999.90;;;;;;;9.07;100.00;100469.13;5032163;28;20990;-74
2021/05/26 03:16:22;;;;;;;1301.43;999.90;;;;;;;9.10;100.00;100468.03;5032330;28;20560;-75
2021/05/26 03:18:52;;;;;;;1202.60;999.90;;;;;;;9.12;100.00;100474.19;5049701;28;20419;-75
2021/05/26 03:21:19;;;;;;;1224.93;999.90;;;;;;;9.15;100.00;100474.81;5032285;28;20461;-75
2021/05/26 03:24:20;;;;;;;1474.40;999.90;;;;;;;9.11;100.00;100473.31;5049077;28;20449;-75
2021/05/26 03:26:46;;;;;;;1152.72;999.90;;;;;;;9.14;100.00;100472.22;5049782;28;20877;-75
2021/05/26 03:29:12;;;;;;;1491.68;999.90;;;;;;;9.13;100.00;100470.50;5049919;28;20475;-75
2021/05/26 03:31:38;;;;;;;1560.03;999.90;;;;;;;9.12;100.00;100474.19;5049731;28;20745;-74
2021/05/26 03:34:05;;;;;;;1698.95;999.90;;;;;;;9.11;100.00;100473.31;5049623;28;20409;-76
2021/05/26 03:36:32;;;;;;;1319.40;999.90;;;;;;;9.10;100.00;100476.16;5049389;28;20949;-76
2021/05/26 03:38:58;;;;;;;1318.80;999.90;;;;;;;9.09;100.00;100469.03;5031656;28;20459;-75
2021/05/26 03:41:25;;;;;;;1422.00;999.90;;;;;;;9.14;100.00;100466.78;5031406;28;20417;-75
2021/05/26 03:43:51;;;;;;;1999.90;999.90;;;;;;;9.13;100.00;100471.34;5031242;28;20781;-74
2021/05/26 03:46:17;;;;;;;1788.95;999.90;;;;;;;9.14;100.00;100475.78;5031909;28;20846;-75
2021/05/26 03:48:43;;;;;;;1413.83;999.90;;;;;;;9.17;100.00;100472.00;5031319;28;20425;-75
2021/05/26 03:51:10;;;;;;;1938.30;999.90;;;;;;;9.18;100.00;100466.44;5031698;28;20860;-75
2021/05/26 03:53:40;;;;;;;1600.93;999.90;;;;;;;9.19;100.00;100472.72;5049170;28;20419;-75
2021/05/26 03:56:14;;;;;;;1181.25;999.90;;;;;;;9.22;100.00;100472.50;5031703;28;20464;-75
2021/05/26 03:58:57;;;;;;;1199.57;999.90;;;;;;;9.27;100.00;100472.97;5030486;28;20474;-75
2021/05/26 04:01:30;;;;;;;1999.90;999.90;;;;;;;9.29;100.00;100468.28;5049002;28;20510;-75
2021/05/26 04:03:56;;;;;;;1741.30;999.90;;;;;;;9.28;100.00;100463.84;5031274;28;20413;-75
2021/05/26 04:06:23;;;;;;;1443.88;999.90;;;;;;;9.31;100.00;100462.75;5048995;28;20417;-75
2021/05/26 04:08:49;;;;;;;1198.97;999.90;;;;;;;9.29;100.00;100462.03;5049277;28;20417;-75
2021/05/26 04:11:15;;;;;;;1634.65;999.90;;;;;;;9.27;100.00;100466.69;5031222;28;20420;-74
2021/05/26 04:13:58;;;;;;;1436.90;999.90;;;;;;;9.26;100.00;100464.97;5031064;28;20927;-75
2021/05/26 04:16:58;;;;;;;1161.40;999.90;;;;;;;9.20;100.00;100461.75;5031183;28;20950;-75
2021/05/26 04:19:48;;;;;;;1873.82;999.90;;;;;;;9.23;100.00;100455.22;5031174;28;20421;-75
2021/05/26 04:22:16;;;;;;;1206.70;999.90;;;;;;;9.32;100.00;100459.06;5052471;28;20455;-75
2021/05/26 04:24:49;;;;;;;1752.20;999.90;;;;;;;9.47;100.00;100455.09;5048562;28;20425;-75
2021/05/26 04:27:15;;;;;;;1257.43;999.90;;;;;;;9.60;100.00;100454.13;5048213;28;20457;-75
2021/05/26 04:29:43;;;;;;;1582.47;999.90;;;;;;;9.74;100.00;100448.44;5044087;28;20433;-75
2021/05/26 04:32:11;;;;;;;1999.90;999.90;;;;;;;9.89;100.00;100446.31;5035126;28;20474;-75
2021/05/26 04:34:37;;;;;;;1356.90;999.90;;;;;;;9.98;100.00;100450.09;5049847;28;20427;-75
2021/05/26 04:37:03;;;;;;;1999.90;999.90;;;;;;;9.96;100.00;100447.50;5066193;28;20421;-75
2021/05/26 04:39:29;;;;;;;1404.85;999.90;;;;;;;9.99;100.00;100454.53;5068653;28;20427;-74
2021/05/26 04:41:55;;;;;;;1642.53;999.90;;;;;;;10.03;100.00;100442.44;5068190;28;20419;-75
2021/05/26 04:44:21;;;;;;;1999.90;999.90;;;;;;;10.08;100.00;100445.63;5048325;28;20417;-75
2021/05/26 04:46:47;;;;;;;1304.60;999.90;;;;;;;10.14;100.00;100438.81;5062612;28;20423;-76
2021/05/26 04:49:13;;;;;;;1813.70;999.90;;;;;;;10.17;100.00;100444.84;5050773;28;20459;-74
2021/05/26 04:51:39;;;;;;;1216.32;999.90;;;;;;;10.27;100.00;100439.50;5059761;28;20425;-75
2021/05/26 04:54:06;;;;;;;1999.90;999.90;;;;;;;10.33;100.00;100436.28;5050273;28;20454;-75
2021/05/26 04:56:33;;;;;;;1473.97;999.90;;;;;;;10.35;100.00;100438.91;5051930;28;20428;-74
2021/05/26 04:58:59;;;;;;;1979.95;999.90;;;;;;;10.43;100.00;100433.69;5048348;28;20429;-74
2021/05/26 05:01:25;;;;;;;1999.90;999.90;;;;;;;10.48;100.00;100431.44;5030498;28;20429;-74
2021/05/26 05:03:51;;;;;;;1829.75;999.90;;;;;;;10.58;100.00;100436.06;5056320;28;20469;-74
2021/05/26 05:06:17;;;;;;;1496.88;999.90;;;;;;;10.65;100.00;100431.81;5056047;28;20412;-73
2021/05/26 05:08:43;;;;;;;1999.90;999.90;;;;;;;10.69;100.00;100431.44;5041404;28;20800;-74
2021/05/26 05:11:08;;;;;;;1999.90;999.90;;;;;;;10.70;100.00;100421.44;5064693;28;20409;-74
2021/05/26 05:13:36;;;;;;;1928.82;999.90;;;;;;;10.75;100.00;100421.91;5060034;28;20471;-74
2021/05/26 05:16:02;;;;;;;1677.65;999.90;;;;;;;10.87;100.00;100431.69;5051889;28;20425;-75
2021/05/26 05:18:28;;;;;;;1322.50;999.90;;;;;;;11.17;100.00;100426.41;5052910;28;20470;-75
2021/05/26 05:20:54;;;;;;;1999.90;999.90;;;;;;;11.48;100.00;100424.53;5053127;28;20421;-75
2021/05/26 05:23:19;;;;;;;1491.87;999.90;;;;;;;11.49;100.00;100431.72;5055184;28;20406;-75
2021/05/26 05:25:45;;;;;;;1999.90;999.90;;;;;;;11.40;100.00;100429.81;5034064;28;20811;-75
2021/05/26 05:28:11;;;;;;;1655.63;999.90;;;;;;;11.39;100.00;100426.22;5053196;28;20920;-74
2021/05/26 05:30:38;;;;;;;1999.90;999.90;;;;;;;11.58;100.00;100419.13;5052674;28;20501;-74
2021/05/26 05:33:05;;;;;;;1999.90;999.90;;;;;;;11.71;100.00;100424.31;5060029;28;20916;-74
2021/05/26 05:35:31;;;;;;;1999.90;999.90;;;;;;;11.98;100.00;100425.56;5053579;28;20434;-74
2021/05/26 05:37:57;;;;;;;1999.90;999.90;;;;;;;11.96;100.00;100427.53;5059394;28;20421;-74
2021/05/26 05:40:23;;;;;;;1771.43;999.90;;;;;;;11.84;100.00;100419.47;5051749;28;20417;-74
2021/05/26 05:42:49;;;;;;;1999.90;999.90;;;;;;;11.79;100.00;100418.19;5051653;28;20431;-74
2021/05/26 05:45:16;;;;;;;1999.90;999.90;;;;;;;11.64;100.00;100429.47;5051608;28;20509;-74
2021/05/26 05:47:42;;;;;;;1893.97;999.90;;;;;;;11.51;100.00;100423.41;5052547;28;20519;-74
2021/05/26 05:50:15;;;;;;;1999.90;999.90;;;;;;;11.47;100.00;100416.53;5068453;28;20481;-74
2021/05/26 05:52:41;;;;;;;1999.90;999.90;;;;;;;11.52;100.00;100425.97;5053475;28;20926;-73
2021/05/26 05:55:08;;;;;;;1224.05;999.90;;;;;;;11.50;100.00;100419.81;5054834;28;20441;-76
2021/05/26 05:57:34;;;;;;;1435.68;999.90;;;;;;;11.52;100.00;100425.13;5075642;28;20543;-75
2021/05/26 06:00:00;;;;;;;1999.90;999.90;;;;;;;11.43;100.00;100425.97;5091376;28;21221;-74
2021/05/26 06:02:26;;;;;;;1428.05;999.90;;;;;;;11.34;100.00;100423.06;5085781;28;20414;-74
2021/05/26 06:04:53;;;;;;;1481.77;999.90;;;;;;;11.27;100.00;100427.31;5091372;28;20409;-75
2021/05/26 06:07:19;;;;;;;1999.90;999.90;;;;;;;11.15;100.00;100418.41;5068897;28;20428;-74
2021/05/26 06:09:45;;;;;;;1999.90;999.90;;;;;;;11.02;100.00;100424.06;5066268;28;20457;-74
2021/05/26 06:12:11;;;;;;;1999.90;999.90;;;;;;;10.91;100.00;100417.84;5070744;28;20403;-74
2021/05/26 06:14:37;;;;;;;1476.88;999.90;;;;;;;10.85;100.00;100425.53;5070574;28;20894;-73
2021/05/26 06:17:03;;;;;;;1493.78;999.90;;;;;;;10.81;100.00;100421.38;5052361;28;20439;-73
2021/05/26 06:19:29;;;;;;;1379.82;999.90;;;;;;;10.84;100.00;100431.13;5082771;28;20412;-73
2021/05/26 06:21:55;;;;;;;1952.75;999.90;;;;;;;10.93;100.00;100424.88;5081788;28;20737;-73
2021/05/26 06:24:22;;;;;;;1999.90;999.90;;;;;;;11.08;100.00;100421.78;5058931;28;20419;-73
2021/05/26 06:26:48;;;;;;;1999.90;999.90;;;;;;;11.10;100.00;100415.22;5047494;28;20415;-74
2021/05/26 06:29:14;;;;;;;1539.90;999.90;;;;;;;11.07;100.00;100426.38;5070464;28;20514;-73
2021/05/26 06:31:40;;;;;;;1999.90;999.90;;;;;;;11.09;100.00;100424.41;5068074;28;20411;-75
2021/05/26 06:34:06;;;;;;;1723.10;999.90;;;;;;;11.25;100.00;100425.72;5052464;28;20438;-74
2021/05/26 06:36:33;;;;;;;1948.90;999.90;;;;;;;11.48;100.00;100419.09;5051394;28;20530;-75
2021/05/26 06:39:00;;;;;;;1708.47;999.90;;;;;;;11.56;100.00;100426.56;5037878;28;20486;-75
2021/05/26 06:41:26;;;;;;;1953.90;999.90;;;;;;;11.54;100.00;100425.84;5063686;28;20450;-75
2021/05/26 06:43:52;;;;;;;1714.35;999.90;;;;;;;11.46;100.00;100421.09;5061918;28;20935;-75
2021/05/26 06:46:18;;;;;;;1999.90;999.90;;;;;;;11.48;100.00;100421.81;5053467;28;20423;-73
2021/05/26 06:48:44;;;;;;;1999.90;999.90;;;;;;;11.54;100.00;100429.44;5066766;28;20648;-75
2021/05/26 06:51:10;;;;;;;1999.90;999.90;;;;;;;11.67;100.00;100431.03;5067668;28;20493;-73
2021/05/26 06:53:36;;;;;;;1999.90;999.90;;;;;;;11.85;100.00;100428.50;5049872;28;20421;-73
2021/05/26 06:56:03;;;;;;;1999.90;999.90;;;;;;;11.92;100.00;100426.06;5050072;28;20889;-73
2021/05/26 06:58:29;;;;;;;1999.90;999.90;;;;;;;12.11;100.00;100412.53;5068843;28;20430;-73
2021/05/26 07:00:55;;;;;;;1999.90;999.90;;;;;;;12.17;100.00;100420.13;5064382;28;20517;-73
2021/05/26 07:03:20;;;;;;;1999.90;999.90;;;;;;;12.34;100.00;100421.25;5059304;28;20417;-73
2021/05/26 07:05:46;;;;;;;1999.90;999.90;;;;;;;12.62;100.00;100418.66;5068914;28;20455;-73
2021/05/26 07:08:12;;;;;;;1999.90;999.90;;;;;;;12.67;100.00;100421.81;5068262;28;20431;-73
2021/05/26 07:10:39;;;;;;;1999.90;999.90;;;;;;;12.74;100.00;100430.25;5074258;28;20505;-73
2021/05/26 07:13:06;;;;;;;1999.90;999.90;;;;;;;12.78;100.00;100412.63;5089803;28;20946;-73
2021/05/26 07:15:32;;;;;;;1999.90;999.90;;;;;;;12.69;100.00;100418.94;5049837;28;20421;-73
2021/05/26 07:18:02;;;;;;;1999.90;999.90;;;;;;;12.55;100.00;100412.94;5031371;28;20530;-73
2021/05/26 07:20:28;;;;;;;1999.90;999.90;;;;;;;12.66;100.00;100420.09;5049778;28;20896;-73
2021/05/26 07:22:54;;;;;;;1999.90;999.90;;;;;;;12.77;100.00;100416.34;5049234;28;20516;-74
2021/05/26 07:25:19;;;;;;;1999.90;999.90;;;;;;;12.60;100.00;100412.53;5049208;28;20418;-74
2021/05/26 07:27:45;;;;;;;1999.90;999.90;;;;;;;12.42;100.00;100411.53;5049021;28;20429;-73
2021/05/26 07:30:14;;;;;;;1999.90;999.90;;;;;;;12.32;100.00;100406.97;5049596;28;20491;-74
2021/05/26 07:32:40;;;;;;;1999.90;999.90;;;;;;;12.30;100.00;100411.66;5078175;28;20432;-74
2021/05/26 07:35:06;;;;;;;1999.90;999.90;;;;;;;12.41;100.00;100409.81;5050840;28;20421;-74
2021/05/26 07:37:32;;;;;;;1999.90;999.90;;;;;;;12.77;100.00;100402.72;5055461;28;20415;-74
2021/05/26 07:39:58;;;;;;;1999.90;999.90;;;;;;;13.18;100.00;100407.91;5037060;28;20938;-74
2021/05/26 07:42:24;;;;;;;1999.90;999.90;;;;;;;13.37;100.00;100407.00;5051497;28;20452;-74
2021/05/26 07:44:50;;;;;;;1999.90;999.90;;;;;;;13.42;100.00;100398.38;5049159;28;20420;-74
2021/05/26 07:47:17;;;;;;;1999.90;999.90;;;;;;;13.44;100.00;100408.13;5050385;28;20418;-74
2021/05/26 07:49:43;;;;;;;1999.90;999.90;;;;;;;13.38;100.00;100415.03;5050297;28;20431;-74
2021/05/26 07:52:11;;;;;;;1999.90;999.90;;;;;;;13.47;100.00;100412.41;5070973;28;20450;-73
2021/05/26 07:54:37;;;;;;;1999.90;999.90;;;;;;;13.67;100.00;100403.13;5087225;28;20409;-74
2021/05/26 07:57:05;;;;;;;1999.90;999.90;;;;;;;13.83;100.00;100402.44;5049607;28;20506;-74
2021/05/26 07:59:31;;;;;;;1999.90;999.90;;;;;;;14.25;100.00;100400.97;5057429;28;20790;-74
2021/05/26 08:01:57;;;;;;;1999.90;999.90;;;;;;;14.80;100.00;100388.97;5068462;28;20446;-74
2021/05/26 08:04:24;;;;;;;1999.90;999.90;;;;;;;14.81;100.00;100389.84;5060512;28;20935;-76
2021/05/26 08:06:50;;;;;;;1999.90;999.90;;;;;;;14.66;100.00;100395.03;5034264;28;20420;-75
2021/05/26 08:09:16;;;;;;;1999.90;999.90;;;;;;;14.56;100.00;100393.22;5069182;28;20410;-75
2021/05/26 08:11:42;;;;;;;1999.90;999.90;;;;;;;14.44;100.00;100386.28;5060499;28;20486;-76
2021/05/26 08:14:08;;;;;;;1999.90;999.90;;;;;;;14.25;100.00;100389.22;5049968;28;20519;-75
2021/05/26 08:16:34;;;;;;;1999.90;999.90;;;;;;;14.77;100.00;100383.84;5058020;28;20427;-77
2021/05/26 08:19:00;;;;;;;1999.90;999.90;;;;;;;15.66;100.00;100378.09;5061220;28;20558;-76
2021/05/26 08:21:26;;;;;;;1999.90;999.90;;;;;;;16.78;95.47;100370.31;5079559;28;20483;-76
2021/05/26 08:23:52;;;;;;;1999.90;999.90;;;;;;;16.95;88.88;100373.09;5054766;28;20424;-74
2021/05/26 08:26:21;;;;;;;1999.90;999.90;;;;;;;16.47;91.00;100365.56;5050093;28;20508;-74
2021/05/26 08:28:48;;;;;;;1999.90;999.90;;;;;;;15.67;91.70;100367.03;5049576;28;20417;-74
2021/05/26 08:31:15;;;;;;;1999.90;999.90;;;;;;;14.92;95.76;100372.31;5068450;28;20495;-75
2021/05/26 08:33:41;;;;;;;1999.90;999.90;;;;;;;14.47;99.69;100363.25;5068918;28;20495;-74
2021/05/26 08:36:07;;;;;;;1999.90;999.90;;;;;;;13.96;100.00;100368.47;5051882;28;20425;-74
2021/05/26 08:38:34;;;;;;;1999.90;999.90;;;;;;;13.78;100.00;100366.56;5065627;28;20450;-74
2021/05/26 08:41:04;;;;;;;1999.90;999.90;;;;;;;13.66;100.00;100365.09;5077180;28;20504;-75
2021/05/26 08:43:30;;;;;;;1999.90;999.90;;;;;;;13.49;100.00;100361.31;5075700;28;20436;-74
2021/05/26 08:45:56;;;;;;;1999.90;999.90;;;;;;;13.51;100.00;100368.34;5070707;28;20447;-74
2021/05/26 08:48:22;;;;;;;1999.90;999.90;;;;;;;13.92;100.00;100358.88;5054519;28;20398;-76
2021/05/26 08:50:50;;;;;;;1999.90;999.90;;;;;;;15.21;100.00;100363.75;5066801;28;20413;-76
2021/05/26 08:53:16;;;;;;;1999.90;999.90;;;;;;;15.59;99.09;100349.72;5059404;28;20497;-77
2021/05/26 08:55:43;;;;;;;1999.90;999.90;;;;;;;15.82;97.89;100356.31;5065251;28;20542;-77
2021/05/26 08:58:09;;;;;;;1999.90;999.90;;;;;;;15.46;96.87;100352.91;5072289;28;20795;-76
2021/05/26 09:00:35;;;;;;;1999.90;999.90;;;;;;;15.09;98.00;100360.47;5041178;28;20420;-75
2021/05/26 09:03:04;;;;;;;1999.90;999.90;;;;;;;14.84;99.14;100352.09;5058330;28;20786;-76
2021/05/26 09:05:30;;;;;;;1999.90;999.90;;;;;;;15.09;98.85;100352.25;5052784;28;20492;-74
2021/05/26 09:07:56;;;;;;;1999.90;999.90;;;;;;;15.97;98.70;100341.97;5066231;28;20932;-74
2021/05/26 09:10:23;;;;;;;1999.90;999.90;;;;;;;16.84;94.42;100339.50;5056353;28;20495;-74
2021/05/26 09:12:52;;;;;;;1999.90;999.90;;;;;;;17.34;88.52;100325.63;5067936;28;20419;-76
2021/05/26 09:15:21;;;;;;;1999.90;999.90;;;;;;;17.36;85.79;100337.31;5064421;28;20437;-75
2021/05/26 09:17:49;;;;;;;1999.90;999.90;;;;;;;17.33;81.42;100327.53;5050695;28;20420;-75
2021/05/26 09:20:26;;;;;;;1999.90;999.90;;;;;;;17.06;80.93;100326.97;5051826;28;20463;-75
2021/05/26 09:23:07;;;;;;;1999.90;999.90;;;;;;;16.84;81.88;100328.53;5077462;28;20850;-75
2021/05/26 09:25:35;;;;;;;1999.90;999.90;;;;;;;16.51;82.76;100330.47;5082048;28;20412;-75
2021/05/26 09:28:24;;;;;;;1999.90;999.90;;;;;;;16.31;83.71;100327.25;5061660;28;20501;-77
2021/05/26 09:30:56;;;;;;;1999.90;999.90;;;;;;;15.82;84.54;100325.31;5057489;28;20413;-77
2021/05/26 09:33:30;;;;;;;1999.90;999.90;;;;;;;15.36;87.24;100321.09;5050071;28;20445;-76
2021/05/26 09:36:16;;;;;;;1999.90;999.90;;;;;;;14.87;91.70;100335.41;5068905;28;20474;-76
2021/05/26 09:38:44;;;;;;;1999.90;999.90;;;;;;;14.73;97.71;100338.72;5057761;28;20469;-76
2021/05/26 09:41:12;;;;;;;1999.90;999.90;;;;;;;14.16;100.00;100350.94;5066420;28;20441;-75
2021/05/26 09:43:45;;;;;;;1999.90;999.90;;;;;;;13.22;100.00;100342.03;5059885;28;20749;-76
2021/05/26 09:46:24;;;;;;;1999.90;999.90;;;;;;;12.65;100.00;100354.88;5055402;28;20414;-75
2021/05/26 09:49:01;;;;;;;1975.97;999.90;;;;;;;12.50;100.00;100358.06;5071302;28;20395;-75
2021/05/26 09:51:27;;;;;;;1999.90;999.90;;;;;;;12.62;100.00;100345.16;5059049;28;20926;-73
2021/05/26 09:54:10;;;;;;;1703.38;999.90;;;;;;;13.11;100.00;100334.09;5054368;28;20453;-74
2021/05/26 09:56:36;;;;;;;1999.90;999.90;;;;;;;13.53;100.00;100330.84;5050661;28;20428;-73
2021/05/26 09:59:03;;;;;;;1864.47;999.90;;;;;;;14.36;100.00;100335.22;5035627;28;20417;-74
2021/05/26 10:01:31;;;;;;;1861.07;999.90;;;;;;;14.47;100.00;100327.75;5061898;28;20419;-75
2021/05/26 10:03:57;;;;;;;1876.65;999.90;;;;;;;14.56;100.00;100318.63;5067301;28;20421;-75
2021/05/26 10:06:23;;;;;;;1999.90;999.90;;;;;;;14.48;100.00;100318.56;5060119;28;20420;-74
2021/05/26 10:09:13;;;;;;;1999.90;999.90;;;;;;;14.70;100.00;100312.59;5063983;28;20491;-75
2021/05/26 10:12:12;;;;;;;1529.28;999.90;;;;;;;15.03;100.00;100312.78;5050848;28;20486;-74
2021/05/26 10:14:44;;;;;;;1999.90;999.90;;;;;;;15.13;100.00;100306.31;5052455;28;20519;-75
2021/05/26 10:17:17;;;;;;;1999.90;999.90;;;;;;;15.30;100.00;100301.75;5070438;28;20423;-75
2021/05/26 10:19:43;;;;;;;1999.90;999.90;;;;;;;15.43;100.00;100296.66;5081730;28;20406;-75
2021/05/26 10:22:10;;;;;;;1999.90;999.90;;;;;;;15.60;100.00;100294.81;5087021;28;20416;-74
2021/05/26 10:24:36;;;;;;;1999.90;999.90;;;;;;;15.82;100.00;100301.56;5070221;28;20425;-74
2021/05/26 10:27:03;;;;;;;1999.90;999.90;;;;;;;15.96;100.00;100301.94;5070293;28;20415;-75
2021/05/26 10:29:33;;;;;;;1999.90;999.90;;;;;;;16.26;100.00;100294.03;5052917;28;20826;-75
2021/05/26 10:32:01;;;;;;;1999.90;999.90;;;;;;;16.97;100.00;100294.25;5084102;28;20406;-75
2021/05/26 10:35:06;;;;;;;1999.90;999.90;;;;;;;16.92;97.12;100313.97;5088471;28;20414;-75
2021/05/26 10:37:38;;;;;;;1999.90;999.90;;;;;;;17.00;96.76;100288.44;5057112;28;20512;-76
2021/05/26 10:40:47;;;;;;;1999.90;999.90;;;;;;;17.55;91.16;100292.94;5032340;28;20432;-75
2021/05/26 10:43:35;;;;;;;1999.90;999.90;;;;;;;18.42;82.73;100288.16;5050260;28;20479;-75
2021/05/26 10:46:03;;;;;;;1999.90;999.90;;;;;;;18.81;78.02;100287.06;5044289;28;20428;-75
2021/05/26 10:49:06;;;;;;;1999.90;999.90;;;;;;;19.06;76.24;100278.56;5070403;28;20419;-75
2021/05/26 10:52:09;;;;;;;1999.90;999.90;;;;;;;19.16;72.25;100294.75;5064832;28;20425;-74
2021/05/26 10:55:06;;;;;;;1999.90;999.90;;;;;;;18.03;71.00;100278.22;5058313;28;20422;-75